KEOK/EOK METAR and TAF weather

Enter ICAO airport designator
Station Type Date Time Source
KEOK METAR 2019/05/27 09:15 UTC NOAA

KEOK 270915Z AUTO 13007KT 10SM CLR 19/18 A2992 RMK AO2


Station Type Date Time Source
KEOK Decoded METAR 2019/05/27 09:15 UTC NOAA

Keokuk Municipal, IA, United States (KEOK) 40-28N 091-26W
May 27, 2019 - 05:15 AM EDT / 2019.05.27 0915 UTC
Wind: from the SE (130 degrees) at 8 MPH (7 KT):0
Visibility: 10 mile(s):0
Sky conditions: clear
Temperature: 66 F (19 C)
Dew Point: 64 F (18 C)
Relative Humidity: 93%
Pressure (altimeter): 29.92 in. Hg (1013 hPa)
ob: KEOK 270915Z AUTO 13007KT 10SM CLR 19/18 A2992 RMK AO2
cycle: 9

Station Type Date Time Source
KEOK TAF UTC NOAA

Error!

Example: see airport list